Time;durP1;ratioP1;P1;durP2;ratioP2;P2;SDS_P1;SDS_P2;PMS_P1;PMS_P2;Temp;Humidity;BMP_temperature;BMP_pressure;BME280_temperature;BME280_humidity;BME280_pressure;Samples;Min_cycle;Max_cycle;Signal;HPM_P1;HPM_P2
2023/01/25 00:01:13;;;;;;;10.18;6.75;;;;;;;2.53;100.00;101791.81;5013486;28;20113;-69
2023/01/25 00:03:39;;;;;;;8.00;5.57;;;;;;;3.03;100.00;101888.88;5012472;28;20519;-69
2023/01/25 00:06:04;;;;;;;9.77;5.88;;;;;;;2.92;100.00;101892.72;5013433;28;20038;-70
2023/01/25 00:08:30;;;;;;;11.85;7.00;;;;;;;2.29;100.00;101780.94;5013511;28;20111;-69
2023/01/25 00:10:55;;;;;;;11.07;6.75;;;;;;;2.30;100.00;101795.16;5013232;28;20048;-70
2023/01/25 00:13:20;;;;;;;11.93;6.95;;;;;;;2.06;100.00;101743.31;5012324;28;20033;-69
2023/01/25 00:15:46;;;;;;;11.18;6.40;;;;;;;2.30;100.00;101794.31;5013322;28;20069;-69
2023/01/25 00:18:11;;;;;;;9.45;6.35;;;;;;;2.86;100.00;101867.38;5011790;28;20037;-69
2023/01/25 00:20:37;;;;;;;11.50;6.50;;;;;;;2.31;100.00;101798.53;5013241;28;20124;-69
2023/01/25 00:23:02;;;;;;;9.43;5.80;;;;;;;2.80;100.00;101867.19;5012174;28;20120;-69
2023/01/25 00:25:28;;;;;;;10.40;6.45;;;;;;;2.89;100.00;101886.72;5013097;28;20064;-69
2023/01/25 00:27:53;;;;;;;9.57;6.50;;;;;;;2.70;100.00;101869.31;5013361;28;20049;-69
2023/01/25 00:30:18;;;;;;;10.00;6.82;;;;;;;2.57;100.00;101827.91;5013225;28;20168;-70
2023/01/25 00:32:53;;;;;;;10.60;6.90;;;;;;;2.39;100.00;101805.53;5013549;28;20404;-69
2023/01/25 00:35:20;;;;;;;9.35;6.70;;;;;;;2.56;100.00;101883.91;5010144;28;20121;-68
2023/01/25 00:37:48;;;;;;;10.35;6.63;;;;;;;2.86;100.00;101874.06;5006628;28;20104;-69
2023/01/25 00:40:14;;;;;;;9.55;6.25;;;;;;;2.35;100.00;101800.34;5011423;28;20030;-69
2023/01/25 00:42:40;;;;;;;9.98;6.63;;;;;;;3.18;100.00;101875.97;5012761;28;20030;-70
2023/01/25 00:45:06;;;;;;;10.73;6.78;;;;;;;2.43;100.00;101771.38;5013561;28;20385;-68
2023/01/25 00:47:32;;;;;;;11.57;7.30;;;;;;;2.70;100.00;101884.38;5011699;28;20030;-70
2023/01/25 00:49:57;;;;;;;11.30;7.50;;;;;;;3.05;100.00;101873.88;5012507;28;20111;-69
2023/01/25 00:52:23;;;;;;;11.88;7.20;;;;;;;2.85;100.00;101847.25;5012983;28;20527;-70
2023/01/25 00:54:48;;;;;;;11.30;7.10;;;;;;;2.77;100.00;101841.97;5013077;28;20551;-69
2023/01/25 00:57:14;;;;;;;11.73;7.22;;;;;;;2.96;100.00;101833.38;5013045;28;20582;-70
2023/01/25 00:59:43;;;;;;;11.77;7.47;;;;;;;1.96;100.00;101742.13;5011507;28;20029;-70
2023/01/25 01:02:10;;;;;;;12.80;7.63;;;;;;;2.40;100.00;101776.25;5012895;28;20060;-69
2023/01/25 01:04:35;;;;;;;12.23;7.75;;;;;;;2.92;100.00;101845.00;5011799;28;20431;-70
2023/01/25 01:07:01;;;;;;;9.50;6.18;;;;;;;2.19;100.00;101757.97;5012903;28;20025;-70
2023/01/25 01:09:26;;;;;;;10.88;6.97;;;;;;;2.66;100.00;101835.72;5012808;28;20032;-69
2023/01/25 01:11:53;;;;;;;10.80;7.35;;;;;;;2.74;100.00;101849.41;5012523;28;20459;-69
2023/01/25 01:14:19;;;;;;;11.75;7.05;;;;;;;2.89;100.00;101844.03;5012693;28;20037;-69
2023/01/25 01:16:45;;;;;;;14.00;7.70;;;;;;;2.73;100.00;101841.81;5011007;28;20072;-69
2023/01/25 01:19:11;;;;;;;11.45;7.18;;;;;;;2.98;100.00;101835.16;5012601;28;20489;-69
2023/01/25 01:21:37;;;;;;;11.57;6.85;;;;;;;2.12;100.00;101758.59;5012605;28;20120;-69
2023/01/25 01:24:02;;;;;;;10.40;6.78;;;;;;;2.40;100.00;101742.00;5011027;28;20089;-70
2023/01/25 01:26:27;;;;;;;11.30;7.13;;;;;;;3.01;100.00;101830.22;5012102;28;20088;-70
2023/01/25 01:28:53;;;;;;;8.70;6.45;;;;;;;2.93;100.00;101835.81;5012191;28;20091;-69
2023/01/25 01:31:23;;;;;;;9.90;6.18;;;;;;;2.10;100.00;101750.16;5012591;28;20506;-69
2023/01/25 01:33:53;;;;;;;10.68;6.50;;;;;;;2.86;100.00;101838.91;5011819;28;20029;-69
2023/01/25 01:36:21;;;;;;;10.90;7.13;;;;;;;2.36;100.00;101742.69;5011921;28;20038;-69
2023/01/25 01:38:47;;;;;;;10.35;7.00;;;;;;;2.92;100.00;101834.06;5012084;28;20117;-69
2023/01/25 01:41:13;;;;;;;10.50;6.55;;;;;;;2.56;100.00;101735.81;5012061;28;20040;-69
2023/01/25 01:43:39;;;;;;;8.68;6.05;;;;;;;2.67;100.00;101814.00;5012145;28;20030;-69
2023/01/25 01:46:11;;;;;;;10.88;6.78;;;;;;;2.57;100.00;101773.53;5011778;28;20386;-69
2023/01/25 01:48:43;;;;;;;8.98;6.35;;;;;;;2.62;100.00;101797.13;5012058;28;20076;-69
2023/01/25 01:51:30;;;;;;;10.40;6.97;;;;;;;2.98;100.00;101817.56;5011930;28;20053;-71
2023/01/25 01:54:15;;;;;;;11.43;7.20;;;;;;;2.44;100.00;101737.91;5011965;28;20025;-69
2023/01/25 01:56:47;;;;;;;10.02;7.00;;;;;;;2.96;100.00;101833.38;5011621;28;20109;-68
2023/01/25 01:59:13;;;;;;;;;;;;;;;2.98;100.00;101835.16;5011855;28;20064;-69
2023/01/25 02:01:39;;;;;;;11.82;7.05;;;;;;;2.41;100.00;101761.28;5011644;28;20384;-69
2023/01/25 02:04:07;;;;;;;10.90;7.30;;;;;;;2.40;100.00;101738.63;5011626;28;21007;-69
2023/01/25 02:06:45;;;;;;;10.82;6.97;;;;;;;2.51;100.00;101757.41;5010265;28;20084;-69
2023/01/25 02:09:13;;;;;;;11.52;7.00;;;;;;;2.55;100.00;101830.38;5011200;28;20026;-69
2023/01/25 02:11:39;;;;;;;10.10;7.03;;;;;;;2.79;100.00;101825.31;5010053;28;20030;-69
2023/01/25 02:14:05;;;;;;;10.32;6.63;;;;;;;2.68;100.00;101821.56;5009739;28;20052;-69
2023/01/25 02:16:31;;;;;;;10.32;7.03;;;;;;;2.24;100.00;101767.38;5009960;28;20077;-69
2023/01/25 02:19:00;;;;;;;12.02;6.68;;;;;;;2.33;100.00;101766.84;5011393;28;20068;-69
2023/01/25 02:21:34;;;;;;;10.02;6.50;;;;;;;2.31;100.00;101784.34;5011322;28;20455;-68
2023/01/25 02:24:07;;;;;;;10.35;6.50;;;;;;;1.81;100.00;101739.09;5011273;28;20063;-68
2023/01/25 02:26:32;;;;;;;9.00;5.85;;;;;;;1.92;100.00;101759.53;5011499;28;20030;-69
2023/01/25 02:29:03;;;;;;;8.98;6.15;;;;;;;1.76;100.00;101761.47;5011191;28;20075;-69
2023/01/25 02:31:28;;;;;;;8.88;5.85;;;;;;;2.48;100.00;101823.41;5011125;28;20088;-69
2023/01/25 02:33:54;;;;;;;8.75;5.70;;;;;;;1.89;100.00;101741.84;5010807;28;20030;-69
2023/01/25 02:36:31;;;;;;;9.40;6.38;;;;;;;2.27;100.00;101749.06;5009596;28;20025;-69
2023/01/25 02:39:00;;;;;;;10.68;6.32;;;;;;;2.45;100.00;101842.53;5010679;28;20033;-69
2023/01/25 02:41:36;;;;;;;9.20;6.10;;;;;;;2.26;100.00;101843.53;5011163;28;20061;-69
2023/01/25 02:44:06;;;;;;;9.38;5.85;;;;;;;2.27;100.00;101786.69;5010030;28;20034;-69
2023/01/25 02:46:34;;;;;;;8.45;5.40;;;;;;;1.69;100.00;101741.16;5010965;28;20036;-69
2023/01/25 02:49:01;;;;;;;8.93;5.57;;;;;;;1.90;100.00;101766.16;5009659;28;20495;-69
2023/01/25 02:51:30;;;;;;;8.27;5.15;;;;;;;2.29;100.00;101841.16;5011123;28;20026;-69
2023/01/25 02:53:57;;;;;;;7.78;5.10;;;;;;;2.16;100.00;101808.88;5010937;28;20100;-69
2023/01/25 02:56:22;;;;;;;7.32;4.85;;;;;;;2.00;100.00;101796.59;5009946;28;20136;-69
2023/01/25 02:58:48;;;;;;;7.75;4.63;;;;;;;1.86;100.00;101795.28;5010817;28;20109;-69
2023/01/25 03:01:14;;;;;;;6.63;4.25;;;;;;;2.11;100.00;101835.47;5008735;28;20092;-68
2023/01/25 03:03:40;;;;;;;6.63;4.63;;;;;;;1.53;100.00;101733.88;4990997;28;20038;-69
2023/01/25 03:06:06;;;;;;;7.65;4.93;;;;;;;1.42;100.00;101723.47;4991090;28;20034;-69
2023/01/25 03:08:32;;;;;;;6.50;4.40;;;;;;;2.04;100.00;101822.66;4991376;28;20034;-70
2023/01/25 03:11:00;;;;;;;6.43;4.35;;;;;;;1.16;100.00;101679.06;4990774;28;20041;-69
2023/01/25 03:13:26;;;;;;;7.10;4.25;;;;;;;2.20;100.00;101839.97;4990974;28;20031;-69
2023/01/25 03:15:56;;;;;;;6.85;4.80;;;;;;;1.65;100.00;101722.66;5005096;28;20121;-70
2023/01/25 03:18:22;;;;;;;6.43;4.57;;;;;;;1.51;100.00;101731.31;5005755;28;20045;-69
2023/01/25 03:20:47;;;;;;;6.32;3.95;;;;;;;1.42;100.00;101723.47;4989533;28;20493;-69
2023/01/25 03:23:13;;;;;;;6.90;4.32;;;;;;;1.87;100.00;101823.69;4990837;28;20033;-69
2023/01/25 03:25:38;;;;;;;6.28;4.00;;;;;;;2.14;100.00;101792.09;5005944;28;20034;-69
2023/01/25 03:28:03;;;;;;;7.07;4.00;;;;;;;1.46;100.00;101726.94;4990934;28;20045;-70
2023/01/25 03:30:29;;;;;;;5.60;3.70;;;;;;;1.50;100.00;101723.75;4993578;28;20504;-69
2023/01/25 03:32:54;;;;;;;5.90;3.75;;;;;;;1.49;100.00;101735.41;5010011;28;20526;-69
2023/01/25 03:35:20;;;;;;;5.70;3.67;;;;;;;2.05;100.00;101814.31;5010623;28;20040;-70
2023/01/25 03:37:45;;;;;;;5.95;3.85;;;;;;;1.94;100.00;101823.13;5009100;28;20092;-70
2023/01/25 03:40:11;;;;;;;4.88;3.25;;;;;;;1.35;100.00;101723.16;5009970;28;20117;-70
2023/01/25 03:42:36;;;;;;;5.40;3.42;;;;;;;1.95;100.00;101803.13;5008477;28;20083;-70
2023/01/25 03:45:02;;;;;;;5.10;3.20;;;;;;;0.83;100.00;101658.63;5010071;28;20123;-70
2023/01/25 03:47:27;;;;;;;5.45;3.25;;;;;;;1.80;100.00;101826.78;5010326;28;20149;-70
2023/01/25 03:49:54;;;;;;;4.75;3.10;;;;;;;1.46;100.00;101750.34;5010280;28;20393;-69
2023/01/25 03:52:19;;;;;;;4.22;2.88;;;;;;;1.88;100.00;101800.34;5010389;28;20037;-69
2023/01/25 03:54:45;;;;;;;5.60;3.40;;;;;;;1.73;100.00;101809.00;5008930;28;20420;-70
2023/01/25 03:57:11;;;;;;;4.10;2.83;;;;;;;1.24;100.00;101730.31;5009059;28;20128;-69
2023/01/25 03:59:37;;;;;;;4.97;3.10;;;;;;;1.81;100.00;101813.44;5012376;28;20081;-69
2023/01/25 04:02:02;;;;;;;4.43;2.92;;;;;;;1.75;100.00;101822.44;5011915;28;20133;-70
2023/01/25 04:04:28;;;;;;;5.43;3.08;;;;;;;1.85;100.00;101810.22;5008749;28;20397;-69
2023/01/25 04:06:53;;;;;;;5.45;3.20;;;;;;;1.29;100.00;101745.50;5010346;28;20037;-70
2023/01/25 04:09:18;;;;;;;5.18;3.33;;;;;;;1.33;100.00;101733.13;5013501;28;20463;-70
2023/01/25 04:11:44;;;;;;;5.40;3.10;;;;;;;1.68;100.00;101830.50;5012299;28;20466;-69
2023/01/25 04:14:09;;;;;;;6.38;3.25;;;;;;;1.75;100.00;101824.94;5012551;28;20130;-70
2023/01/25 04:16:34;;;;;;;5.50;3.45;;;;;;;1.63;100.00;101791.91;5013336;28;20439;-70
2023/01/25 04:19:00;;;;;;;5.90;3.30;;;;;;;1.35;100.00;101741.56;5013865;28;20034;-70
2023/01/25 04:21:26;;;;;;;4.90;3.17;;;;;;;1.94;100.00;101840.69;5013933;28;20049;-69
2023/01/25 04:23:51;;;;;;;5.55;3.67;;;;;;;1.38;100.00;101750.84;5012040;28;20036;-70
2023/01/25 04:26:16;;;;;;;5.88;3.83;;;;;;;1.16;100.00;101701.59;5013137;28;20045;-70
2023/01/25 04:28:42;;;;;;;5.03;3.58;;;;;;;1.24;100.00;101739.44;5011330;28;20025;-70
2023/01/25 04:31:07;;;;;;;6.32;4.30;;;;;;;1.45;100.00;101753.63;5003230;28;20477;-69
2023/01/25 04:33:33;;;;;;;8.35;4.15;;;;;;;1.45;100.00;101761.16;5013443;28;20092;-69
2023/01/25 04:35:59;;;;;;;8.20;4.28;;;;;;;1.27;100.00;101737.91;5012111;28;20479;-70
2023/01/25 04:38:24;;;;;;;7.53;3.90;;;;;;;1.74;100.00;101815.69;5012200;28;20036;-70
2023/01/25 04:40:51;;;;;;;5.50;3.70;;;;;;;1.93;100.00;101670.97;5006808;28;20034;-69
2023/01/25 04:43:18;;;;;;;5.60;3.50;;;;;;;1.51;100.00;101743.84;4999484;28;20031;-70
2023/01/25 04:45:44;;;;;;;6.57;4.07;;;;;;;1.54;100.00;101728.94;5024903;28;20435;-71
2023/01/25 04:48:11;;;;;;;7.25;4.45;;;;;;;1.91;100.00;101815.47;5012360;28;20077;-71
2023/01/25 04:50:38;;;;;;;6.28;4.00;;;;;;;1.45;100.00;101762.78;5012243;28;20041;-71
2023/01/25 04:53:04;;;;;;;6.47;3.90;;;;;;;1.71;100.00;101808.09;5012646;28;20125;-71
2023/01/25 04:55:29;;;;;;;5.55;3.58;;;;;;;1.31;100.00;101742.25;5012127;28;20088;-70
2023/01/25 04:57:55;;;;;;;5.75;4.00;;;;;;;2.03;100.00;101813.41;5013054;28;20034;-71
2023/01/25 05:00:20;;;;;;;6.80;3.42;;;;;;;1.78;100.00;101826.72;5012723;28;20017;-70
2023/01/25 05:02:46;;;;;;;7.70;3.97;;;;;;;1.29;100.00;101748.00;5012419;28;20132;-70
2023/01/25 05:05:12;;;;;;;5.57;3.70;;;;;;;1.28;100.00;101756.31;5012369;28;20095;-69
2023/01/25 05:07:38;;;;;;;6.82;3.97;;;;;;;1.84;100.00;101821.94;5012722;28;20496;-70
2023/01/25 05:10:04;;;;;;;6.43;3.25;;;;;;;1.42;100.00;101780.22;5011961;28;20037;-69
2023/01/25 05:12:29;;;;;;;6.15;4.30;;;;;;;1.34;100.00;101757.41;5012005;28;20611;-70
2023/01/25 05:14:55;;;;;;;6.97;4.03;;;;;;;1.66;100.00;101822.09;5010791;28;20045;-69
2023/01/25 05:17:21;;;;;;;9.38;4.65;;;;;;;1.25;100.00;101747.00;5010677;28;20056;-68
2023/01/25 05:19:46;;;;;;;6.63;3.85;;;;;;;1.71;100.00;101820.63;5011484;28;20028;-70
2023/01/25 05:22:16;;;;;;;8.60;4.35;;;;;;;1.23;100.00;101748.59;5012310;28;20488;-69
2023/01/25 05:24:43;;;;;;;9.93;4.82;;;;;;;0.79;100.00;101676.81;5012052;28;20030;-70
2023/01/25 05:27:14;;;;;;;8.77;4.88;;;;;;;1.76;100.00;101828.31;5011820;28;20022;-69
2023/01/25 05:29:41;;;;;;;9.13;5.55;;;;;;;1.75;100.00;101824.94;5010615;28;20029;-70
2023/01/25 05:32:10;;;;;;;8.38;5.18;;;;;;;1.71;100.00;101837.31;5012021;28;20524;-70
2023/01/25 05:34:35;;;;;;;7.80;4.68;;;;;;;1.54;100.00;101804.09;5011705;28;20557;-70
2023/01/25 05:37:01;;;;;;;8.60;4.88;;;;;;;1.76;100.00;101835.84;5010230;28;20041;-70
2023/01/25 05:39:27;;;;;;;6.25;4.25;;;;;;;1.64;100.00;101818.66;5012206;28;20072;-70
2023/01/25 05:41:52;;;;;;;7.70;4.80;;;;;;;1.73;100.00;101834.06;5009377;28;20065;-70
2023/01/25 05:44:18;;;;;;;10.27;5.90;;;;;;;1.22;100.00;101759.44;4994268;28;20065;-70
2023/01/25 05:46:44;;;;;;;7.70;5.20;;;;;;;1.47;100.00;101731.13;5011627;28;20087;-69
2023/01/25 05:49:10;;;;;;;9.32;4.80;;;;;;;1.73;100.00;101839.06;5011952;28;20037;-69
2023/01/25 05:51:37;;;;;;;9.07;4.88;;;;;;;1.92;100.00;101787.13;5011327;28;20046;-70
2023/01/25 05:54:03;;;;;;;7.55;4.43;;;;;;;1.89;100.00;101844.66;5010710;28;20535;-70
2023/01/25 05:56:28;;;;;;;7.45;4.60;;;;;;;2.01;100.00;101840.94;5011185;28;20169;-70
2023/01/25 05:58:55;;;;;;;7.78;4.85;;;;;;;1.51;100.00;101761.38;5009298;28;20120;-69
2023/01/25 06:01:21;;;;;;;6.97;4.30;;;;;;;1.88;100.00;101846.31;5009529;28;20116;-70
2023/01/25 06:03:47;;;;;;;8.38;4.40;;;;;;;1.59;100.00;101782.56;5010171;28;20423;-70
2023/01/25 06:06:12;;;;;;;7.50;4.65;;;;;;;1.62;100.00;101816.91;5009076;28;20042;-69
2023/01/25 06:08:38;;;;;;;9.15;4.57;;;;;;;1.18;100.00;101682.50;5011105;28;20041;-69
2023/01/25 06:11:11;;;;;;;9.05;4.07;;;;;;;2.01;100.00;101837.56;5011346;28;20122;-69
2023/01/25 06:13:36;;;;;;;7.25;4.43;;;;;;;1.82;100.00;101816.00;5011219;28;20034;-70
2023/01/25 06:16:02;;;;;;;6.22;4.22;;;;;;;1.89;100.00;101847.16;5011275;28;20057;-70
2023/01/25 06:18:29;;;;;;;7.03;3.83;;;;;;;1.38;100.00;101766.75;5009988;28;20041;-69
2023/01/25 06:20:56;;;;;;;6.68;4.18;;;;;;;1.91;100.00;101855.59;5009700;28;20420;-70
2023/01/25 06:23:21;;;;;;;7.13;4.80;;;;;;;1.60;100.00;101778.41;5009397;28;20127;-70
2023/01/25 06:25:47;;;;;;;7.38;4.22;;;;;;;1.46;100.00;101747.84;5010912;28;20518;-70
2023/01/25 06:28:12;;;;;;;5.75;3.83;;;;;;;1.52;100.00;101769.75;5010939;28;20022;-70
2023/01/25 06:30:38;;;;;;;6.63;4.28;;;;;;;1.11;100.00;101707.25;5010808;28;20088;-70
2023/01/25 06:33:03;;;;;;;6.68;4.00;;;;;;;1.53;100.00;101801.53;5010776;28;20408;-69
2023/01/25 06:35:31;;;;;;;8.18;4.28;;;;;;;1.59;100.00;101792.59;5011187;28;20124;-70
2023/01/25 06:37:58;;;;;;;7.20;4.53;;;;;;;1.57;100.00;101774.13;5009549;28;20025;-70
2023/01/25 06:40:24;;;;;;;7.30;4.60;;;;;;;2.03;100.00;101851.91;5011158;28;20061;-69
2023/01/25 06:42:50;;;;;;;6.47;4.13;;;;;;;1.58;100.00;101800.06;5011035;28;20038;-70
2023/01/25 06:45:15;;;;;;;6.93;4.03;;;;;;;1.23;100.00;101711.03;5009806;28;20427;-70
2023/01/25 06:47:41;;;;;;;6.05;4.10;;;;;;;1.76;100.00;101811.59;5009811;28;20038;-70
2023/01/25 06:50:08;;;;;;;8.07;4.68;;;;;;;2.00;100.00;101866.81;5011188;28;20144;-70
2023/01/25 06:52:36;;;;;;;7.57;4.35;;;;;;;2.09;100.00;101862.16;5010665;28;20033;-70
2023/01/25 06:55:06;;;;;;;6.72;4.15;;;;;;;1.96;100.00;101859.13;5009536;28;20465;-70
2023/01/25 06:57:33;;;;;;;5.00;3.08;;;;;;;1.59;100.00;101782.56;5011198;28;20034;-71
2023/01/25 06:59:59;;;;;;;8.15;4.50;;;;;;;1.83;100.00;101826.88;5011275;28;20051;-70
2023/01/25 07:02:24;;;;;;;6.65;4.10;;;;;;;2.02;100.00;101859.38;5010864;28;20076;-70
2023/01/25 07:04:49;;;;;;;7.75;4.25;;;;;;;1.88;100.00;101793.69;5010776;28;20018;-70
2023/01/25 07:07:15;;;;;;;5.07;3.28;;;;;;;1.81;100.00;101790.88;5010556;28;20089;-70
2023/01/25 07:09:40;;;;;;;6.13;3.90;;;;;;;1.68;100.00;101747.81;5009132;28;20034;-70
2023/01/25 07:12:06;;;;;;;7.10;3.80;;;;;;;1.43;100.00;101720.16;5010451;28;20038;-71
2023/01/25 07:14:32;;;;;;;5.30;3.20;;;;;;;2.23;100.00;101842.56;5010396;28;20103;-70
2023/01/25 07:16:57;;;;;;;7.18;3.50;;;;;;;1.60;100.00;101748.34;5010570;28;20057;-69
2023/01/25 07:19:23;;;;;;;5.80;3.15;;;;;;;2.31;100.00;101874.66;5010229;28;20100;-70
2023/01/25 07:21:48;;;;;;;6.50;3.70;;;;;;;1.91;100.00;101780.38;5010206;28;20044;-70
2023/01/25 07:24:16;;;;;;;5.05;3.50;;;;;;;2.14;100.00;101794.59;5012069;28;20100;-70
2023/01/25 07:26:42;;;;;;;5.85;3.90;;;;;;;2.24;100.00;101820.03;5014542;28;20488;-70
2023/01/25 07:29:12;;;;;;;6.85;3.72;;;;;;;2.18;100.00;101829.03;5012110;28;20033;-70
2023/01/25 07:31:37;;;;;;;6.03;4.13;;;;;;;1.78;100.00;101759.03;5010649;28;20121;-71
2023/01/25 07:34:03;;;;;;;7.57;3.83;;;;;;;2.03;100.00;101785.81;5010650;28;20092;-70
2023/01/25 07:36:29;;;;;;;5.70;3.90;;;;;;;1.98;100.00;101779.81;5009175;28;20042;-70
2023/01/25 07:38:56;;;;;;;7.15;4.13;;;;;;;1.94;100.00;101772.97;5010423;28;20034;-70
2023/01/25 07:41:23;;;;;;;6.70;4.38;;;;;;;2.47;100.00;101866.03;5010459;28;20041;-70
2023/01/25 07:43:49;;;;;;;6.97;4.00;;;;;;;2.57;100.00;101868.91;5013415;28;20526;-70
2023/01/25 07:46:15;;;;;;;6.20;3.97;;;;;;;2.37;100.00;101822.19;5014504;28;20133;-70
2023/01/25 07:48:46;;;;;;;7.40;4.43;;;;;;;2.00;100.00;101766.50;5014075;28;20113;-70
2023/01/25 07:51:11;;;;;;;5.85;3.95;;;;;;;2.76;100.00;101872.91;5014154;28;20412;-70
2023/01/25 07:53:38;;;;;;;6.80;4.45;;;;;;;1.72;100.00;101709.53;5014218;28;20041;-70
2023/01/25 07:56:05;;;;;;;9.23;4.43;;;;;;;2.67;100.00;101864.22;5013662;28;20076;-70
2023/01/25 07:58:30;;;;;;;11.00;5.25;;;;;;;2.72;100.00;101866.06;5014266;28;20037;-70
2023/01/25 08:00:55;;;;;;;7.78;4.78;;;;;;;3.00;100.00;101848.59;5013852;28;20038;-70
2023/01/25 08:03:21;;;;;;;5.30;3.45;;;;;;;2.73;100.00;101845.19;5012394;28;20085;-70
2023/01/25 08:05:47;;;;;;;7.28;4.30;;;;;;;2.08;100.00;101714.97;5013733;28;20569;-71
2023/01/25 08:08:13;;;;;;;5.32;3.30;;;;;;;2.72;100.00;101855.16;5014062;28;20041;-69
2023/01/25 08:10:38;;;;;;;5.15;3.22;;;;;;;1.85;100.00;101723.34;5014026;28;20436;-69
2023/01/25 08:13:03;;;;;;;5.13;3.10;;;;;;;1.91;100.00;101718.56;5013952;28;20034;-70
2023/01/25 08:15:29;;;;;;;4.32;2.80;;;;;;;2.19;100.00;101780.56;5013384;28;20026;-70
2023/01/25 08:17:58;;;;;;;7.32;4.05;;;;;;;2.27;100.00;101777.53;5013820;28;20109;-70
2023/01/25 08:20:24;;;;;;;6.85;4.93;;;;;;;2.83;100.00;101872.31;5013159;28;20042;-69
2023/01/25 08:22:51;;;;;;;6.43;3.97;;;;;;;2.74;100.00;101854.41;5012301;28;20030;-70
2023/01/25 08:25:16;;;;;;;5.65;3.78;;;;;;;2.79;100.00;101837.88;5012267;28;20033;-70
2023/01/25 08:27:42;;;;;;;5.38;3.05;;;;;;;2.65;100.00;101829.00;5014044;28;20399;-70
2023/01/25 08:30:08;;;;;;;6.32;3.20;;;;;;;2.76;100.00;101835.25;5013786;28;20026;-70
2023/01/25 08:32:34;;;;;;;5.28;3.47;;;;;;;2.93;100.00;101858.41;5013701;28;20092;-70
2023/01/25 08:35:00;;;;;;;5.35;3.47;;;;;;;2.32;100.00;101780.16;5013078;28;20068;-69
2023/01/25 08:37:28;;;;;;;6.13;3.53;;;;;;;2.38;100.00;101773.72;5013401;28;20065;-70
2023/01/25 08:39:56;;;;;;;6.35;3.40;;;;;;;2.69;100.00;101875.16;5013536;28;20109;-70
2023/01/25 08:42:22;;;;;;;7.32;3.65;;;;;;;2.21;100.00;101772.28;5012158;28;20442;-70
2023/01/25 08:44:47;;;;;;;5.25;3.50;;;;;;;2.51;100.00;101793.41;5013556;28;20095;-70
2023/01/25 08:47:12;;;;;;;7.07;4.60;;;;;;;2.79;100.00;101855.44;5012105;28;20022;-69
2023/01/25 08:49:38;;;;;;;6.32;4.15;;;;;;;2.43;100.00;101763.84;5012858;28;20805;-70
2023/01/25 08:52:03;;;;;;;7.18;4.03;;;;;;;3.03;100.00;101842.84;5012161;28;20034;-70
2023/01/25 08:54:29;;;;;;;7.28;4.00;;;;;;;2.42;100.00;101775.53;5012208;28;20129;-70
2023/01/25 08:56:55;;;;;;;6.75;3.83;;;;;;;2.79;100.00;101816.91;5012796;28;20030;-70
2023/01/25 08:59:20;;;;;;;7.53;4.28;;;;;;;3.06;100.00;101848.81;5012989;28;20543;-70
2023/01/25 09:01:46;;;;;;;6.93;4.40;;;;;;;3.40;100.00;101868.31;5012821;28;20033;-70
2023/01/25 09:04:11;;;;;;;6.80;4.30;;;;;;;3.15;100.00;101836.53;5012903;28;20043;-70
2023/01/25 09:06:37;;;;;;;8.43;4.40;;;;;;;3.01;100.00;101826.88;5012985;28;20068;-70
2023/01/25 09:09:03;;;;;;;8.57;4.80;;;;;;;3.17;100.00;101862.56;5011271;28;20034;-70
2023/01/25 09:11:29;;;;;;;6.53;4.60;;;;;;;3.19;100.00;101855.09;5012750;28;20484;-70
2023/01/25 09:13:55;;;;;;;6.32;3.97;;;;;;;3.23;100.00;101834.25;5012622;28;20034;-69
2023/01/25 09:16:29;;;;;;;5.53;3.67;;;;;;;2.96;100.00;101775.63;5012786;28;20046;-70
2023/01/25 09:19:01;;;;;;;6.90;4.10;;;;;;;3.82;100.00;101823.50;5012563;28;20423;-70
2023/01/25 09:21:28;;;;;;;5.43;3.70;;;;;;;3.51;100.00;101852.75;5011419;28;20034;-70
2023/01/25 09:23:54;;;;;;;5.55;3.58;;;;;;;3.47;100.00;101858.50;5012622;28;20030;-70
2023/01/25 09:26:20;;;;;;;7.53;4.85;;;;;;;3.49;100.00;101854.38;5012561;28;20420;-69
2023/01/25 09:28:48;;;;;;;8.13;4.30;;;;;;;2.72;100.00;101757.25;5012126;28;20042;-69
2023/01/25 09:31:13;;;;;;;7.65;4.75;;;;;;;3.38;100.00;101830.59;5012147;28;20096;-70
2023/01/25 09:33:41;;;;;;;9.65;5.97;;;;;;;2.80;100.00;101746.66;5012672;28;20033;-70
2023/01/25 09:36:07;;;;;;;9.02;5.22;;;;;;;2.81;100.00;101740.84;5012028;28;20022;-70
2023/01/25 09:38:32;;;;;;;6.78;4.45;;;;;;;2.65;100.00;101726.09;5012146;28;20475;-70
2023/01/25 09:41:03;;;;;;;7.90;4.10;;;;;;;3.14;100.00;101817.25;5012091;28;20049;-70
2023/01/25 09:43:47;;;;;;;7.75;5.07;;;;;;;3.25;100.00;101817.56;5012009;28;20060;-70
2023/01/25 09:46:40;;;;;;;7.20;4.65;;;;;;;3.08;100.00;101814.53;5012357;28;20034;-70
2023/01/25 09:49:08;;;;;;;10.20;5.22;;;;;;;3.24;100.00;101815.88;5004106;28;20120;-70
2023/01/25 09:52:00;;;;;;;6.80;4.75;;;;;;;3.15;100.00;101808.06;5012063;28;20030;-70
2023/01/25 09:54:27;;;;;;;7.65;4.68;;;;;;;2.75;100.00;101714.69;5011929;28;20040;-68
2023/01/25 09:56:53;;;;;;;5.05;3.42;;;;;;;2.53;100.00;101713.16;5011849;28;20524;-70
2023/01/25 09:59:25;;;;;;;5.20;3.50;;;;;;;2.76;100.00;101738.97;5012092;28;20109;-69
2023/01/25 10:01:53;;;;;;;7.18;3.97;;;;;;;3.00;100.00;101800.88;5010325;28;20121;-69
2023/01/25 10:04:24;;;;;;;6.60;3.70;;;;;;;3.10;100.00;101782.78;5011860;28;20038;-70
2023/01/25 10:06:52;;;;;;;6.07;3.97;;;;;;;2.65;100.00;101706.00;5010449;28;20488;-69
2023/01/25 10:09:18;;;;;;;11.88;6.72;;;;;;;3.18;100.00;101788.03;5011711;28;20030;-70
2023/01/25 10:11:43;;;;;;;12.35;6.90;;;;;;;2.65;100.00;101690.94;5011499;28;20032;-70
2023/01/25 10:14:14;;;;;;;9.73;5.85;;;;;;;3.10;100.00;101761.81;5011131;28;20041;-70
2023/01/25 10:16:49;;;;;;;8.93;5.10;;;;;;;3.38;100.00;101761.84;5011338;28;20046;-70
2023/01/25 10:19:27;;;;;;;8.73;4.60;;;;;;;3.33;100.00;101763.38;5011015;28;20066;-69
2023/01/25 10:21:58;;;;;;;7.53;4.35;;;;;;;3.19;100.00;101732.81;4659279;28;9999831;-69
2023/01/25 10:24:44;;;;;;;5.88;3.65;;;;;;;3.06;100.00;101752.50;5008138;28;20029;-71
2023/01/25 10:27:36;;;;;;;6.95;4.00;;;;;;;2.76;100.00;101667.00;5007629;28;20100;-71
2023/01/25 10:30:20;;;;;;;6.07;4.15;;;;;;;3.33;100.00;101715.63;5006885;28;20558;-70
2023/01/25 10:32:47;;;;;;;5.88;3.60;;;;;;;3.00;100.00;101684.47;5007661;28;20033;-70
2023/01/25 10:35:19;;;;;;;5.35;3.30;;;;;;;2.90;100.00;101693.41;5007868;28;20037;-71
2023/01/25 10:37:45;;;;;;;5.25;3.60;;;;;;;3.17;100.00;101729.41;5005860;28;20037;-70
2023/01/25 10:40:11;;;;;;;6.43;3.95;;;;;;;3.34;100.00;101733.28;5005837;28;20058;-70
2023/01/25 10:42:42;;;;;;;7.82;3.72;;;;;;;3.19;100.00;101634.00;5009429;28;20669;-69
2023/01/25 10:45:16;;;;;;;6.22;3.83;;;;;;;3.26;100.00;101732.19;5009251;28;20061;-71
2023/01/25 10:48:05;;;;;;;6.30;3.40;;;;;;;3.56;100.00;101718.81;5009951;28;20060;-71
2023/01/25 10:50:43;;;;;;;7.28;3.78;;;;;;;4.00;100.00;101713.34;5008387;28;20090;-71
2023/01/25 10:53:35;;;;;;;6.15;3.95;;;;;;;3.47;100.00;101701.78;5017114;28;20029;-70
2023/01/25 10:56:03;;;;;;;5.50;4.03;;;;;;;3.67;100.00;101704.84;5013446;28;20049;-71
2023/01/25 10:58:31;;;;;;;7.03;4.43;;;;;;;3.12;100.00;101600.28;5010591;28;20072;-70
2023/01/25 11:00:56;;;;;;;8.13;4.50;;;;;;;3.77;100.00;101684.19;5010582;28;20034;-70
2023/01/25 11:03:22;;;;;;;6.85;4.10;;;;;;;3.24;100.00;101600.63;5010541;28;20110;-70
2023/01/25 11:05:55;;;;;;;7.13;4.28;;;;;;;3.12;100.00;101582.72;5010398;28;20040;-70
2023/01/25 11:08:32;;;;;;;7.18;3.88;;;;;;;3.00;100.00;101573.97;5009446;28;20040;-71
2023/01/25 11:10:59;;;;;;;6.45;3.63;;;;;;;3.26;100.00;101588.97;5010560;28;20022;-70
2023/01/25 11:13:27;;;;;;;7.10;4.35;;;;;;;3.75;100.00;101597.78;5010354;28;20033;-70
2023/01/25 11:16:12;;;;;;;7.55;4.93;;;;;;;4.20;100.00;101674.41;5010603;28;20042;-70
2023/01/25 11:18:55;;;;;;;11.90;8.00;;;;;;;4.05;100.00;101637.16;5010117;28;20087;-70
2023/01/25 11:21:29;;;;;;;8.65;4.78;;;;;;;3.95;100.00;101647.81;5010704;28;20125;-70
2023/01/25 11:24:05;;;;;;;6.07;3.83;;;;;;;3.88;100.00;101650.13;5009153;28;20045;-70
2023/01/25 11:26:32;;;;;;;6.72;4.15;;;;;;;4.02;100.00;101647.13;5009259;28;20029;-70